Salt Lake City, Utah
Traffic Map
Current Weather Conditions
Salt Lake City, Utah
Broken Clouds
Broken Clouds
57°
Feels Like: 57°
Wind Chill: 57° Ceiling: 18000
Heat Index: 57° Visibility: 10mi
Dew Point: 23° Wind: 20mph
Humidity: 27% Direction: 50° (NE)
Pressure: 30.06in Gusts: 29mph
Raw Report DataKSLC 011654Z 05017G25KT 10SM FEW065 FEW110 SCT140 BKN180 14/M05 A3006 RMK AO2 SLP155 SCSL DSNT N-E ACSL DSNT N-SE T01391050
Traffic Incident Summary
Active as of:
Severity:
Category:
InformationThere was an issue retrieving the traffic information for this location. Please try a different location or try again shortly.
Advertisements
Track Severe Weather on mobile